createdAt,value
2023-01-17T00:02:24.214Z,86.50
2023-01-17T00:05:09.960Z,86.40
2023-01-17T00:07:55.513Z,86.30
2023-01-17T00:10:27.900Z,86.70
2023-01-17T00:13:01.785Z,86.30
2023-01-17T00:15:31.512Z,86.10
2023-01-17T00:17:59.492Z,86.50
2023-01-17T00:20:49.903Z,86.30
2023-01-17T00:23:43.862Z,85.80
2023-01-17T00:26:19.487Z,85.90
2023-01-17T00:28:46.876Z,85.80
2023-01-17T00:31:16.576Z,86.00
2023-01-17T00:33:43.665Z,86.40
2023-01-17T00:36:11.826Z,86.50
2023-01-17T00:38:40.844Z,86.60
2023-01-17T00:41:14.381Z,86.70
2023-01-17T00:44:00.295Z,86.70
2023-01-17T00:46:46.214Z,87.10
2023-01-17T00:49:32.209Z,86.90
2023-01-17T00:52:17.794Z,86.90
2023-01-17T00:55:03.318Z,86.80
2023-01-17T00:57:48.726Z,86.60
2023-01-17T01:00:39.075Z,86.70
2023-01-17T01:03:29.974Z,86.80
2023-01-17T01:06:15.526Z,86.60
2023-01-17T01:09:00.942Z,87.00
2023-01-17T01:11:46.303Z,87.40
2023-01-17T01:14:31.807Z,87.70
2023-01-17T01:17:17.176Z,87.70
2023-01-17T01:20:02.489Z,88.00
2023-01-17T01:22:47.841Z,88.20
2023-01-17T01:25:33.248Z,88.80
2023-01-17T01:28:31.382Z,89.40
2023-01-17T01:31:24.649Z,90.10
2023-01-17T01:33:53.347Z,90.50
2023-01-17T01:36:21.046Z,90.80
2023-01-17T01:38:48.149Z,91.10
2023-01-17T01:41:15.072Z,91.20
2023-01-17T01:43:53.794Z,91.60
2023-01-17T01:46:35.253Z,91.60
2023-01-17T01:49:28.201Z,91.60
2023-01-17T01:52:03.209Z,91.80
2023-01-17T01:55:00.627Z,91.70
2023-01-17T01:57:40.037Z,91.60
2023-01-17T02:00:18.591Z,91.90
2023-01-17T02:02:52.117Z,91.90
2023-01-17T02:05:24.560Z,92.10
2023-01-17T02:08:05.101Z,92.30
2023-01-17T02:10:39.510Z,92.50
2023-01-17T02:13:09.209Z,92.60
2023-01-17T02:16:39.712Z,92.60
2023-01-17T02:20:05.602Z,92.60
2023-01-17T02:23:34.621Z,92.80
2023-01-17T02:26:57.737Z,92.80
2023-01-17T02:30:17.716Z,92.80
2023-01-17T02:33:08.967Z,92.80
2023-01-17T02:36:05.148Z,93.10
2023-01-17T02:39:08.431Z,93.50
2023-01-17T02:41:44.472Z,93.60
2023-01-17T02:44:18.658Z,93.70
2023-01-17T02:46:59.182Z,93.80
2023-01-17T02:49:31.690Z,93.70
2023-01-17T02:53:03.291Z,93.50
2023-01-17T02:55:45.367Z,93.30
2023-01-17T02:59:12.003Z,93.20
2023-01-17T03:02:59.353Z,93.30
2023-01-17T03:05:45.377Z,93.50
2023-01-17T03:08:14.950Z,93.60
2023-01-17T03:10:43.039Z,93.50
2023-01-17T03:13:10.294Z,93.20
2023-01-17T03:15:40.241Z,93.00
2023-01-17T03:18:15.577Z,92.90
2023-01-17T03:20:43.086Z,92.50
2023-01-17T03:23:10.062Z,92.00
2023-01-17T03:25:37.064Z,91.50
2023-01-17T03:28:04.590Z,91.60
2023-01-17T03:30:31.535Z,91.20
2023-01-17T03:32:58.459Z,91.20
2023-01-17T03:35:25.390Z,90.70
2023-01-17T03:37:52.283Z,90.80
2023-01-17T03:40:19.219Z,90.50
2023-01-17T03:42:46.167Z,90.60
2023-01-17T03:45:13.209Z,90.50
2023-01-17T03:47:40.120Z,90.50
2023-01-17T03:50:07.662Z,90.30
2023-01-17T03:52:34.553Z,90.30
2023-01-17T03:55:02.551Z,90.10
2023-01-17T03:57:29.713Z,89.30
2023-01-17T03:59:56.603Z,88.90
2023-01-17T04:02:24.708Z,88.80
2023-01-17T04:04:51.676Z,89.00
2023-01-17T04:07:18.592Z,89.10
2023-01-17T04:09:45.517Z,89.00
2023-01-17T04:12:12.462Z,88.70
2023-01-17T04:14:40.801Z,88.70
2023-01-17T04:17:12.971Z,88.50
2023-01-17T04:19:41.121Z,88.50
2023-01-17T04:22:08.557Z,88.50
2023-01-17T04:24:35.835Z,88.70
2023-01-17T04:27:05.381Z,88.80
2023-01-17T04:29:32.528Z,88.90
2023-01-17T04:31:59.401Z,89.00
2023-01-17T04:34:26.910Z,89.00
2023-01-17T04:36:53.828Z,89.00
2023-01-17T04:39:20.724Z,89.00
2023-01-17T04:41:47.644Z,89.10
2023-01-17T04:44:14.549Z,88.50
2023-01-17T04:46:41.496Z,88.00
2023-01-17T04:49:08.384Z,87.30
2023-01-17T04:51:36.068Z,87.00
2023-01-17T04:54:02.902Z,87.20
2023-01-17T04:56:29.760Z,87.30
2023-01-17T04:58:59.568Z,87.50
2023-01-17T05:01:26.930Z,87.60
2023-01-17T05:03:53.882Z,87.70
2023-01-17T05:06:20.822Z,87.80
2023-01-17T05:08:47.682Z,88.00
2023-01-17T05:11:14.560Z,88.50
2023-01-17T05:13:41.466Z,89.30
2023-01-17T05:16:08.377Z,89.50
2023-01-17T05:18:35.276Z,89.60
2023-01-17T05:21:04.362Z,89.80
2023-01-17T05:23:32.955Z,90.00
2023-01-17T05:25:59.877Z,90.50
2023-01-17T05:28:26.833Z,90.60
2023-01-17T05:30:53.718Z,90.80
2023-01-17T05:33:20.714Z,90.90
2023-01-17T05:35:47.646Z,91.00
2023-01-17T05:38:14.682Z,91.10
2023-01-17T05:40:41.674Z,91.30
2023-01-17T05:43:09.095Z,91.50
2023-01-17T05:45:36.418Z,91.80
2023-01-17T05:48:04.289Z,91.90
2023-01-17T05:50:36.748Z,92.30
2023-01-17T05:53:16.681Z,92.70
2023-01-17T05:55:44.268Z,92.90
2023-01-17T05:58:20.410Z,93.10
2023-01-17T06:00:49.092Z,93.00
2023-01-17T06:03:17.072Z,92.80
2023-01-17T06:05:44.969Z,92.90
2023-01-17T06:08:12.079Z,92.90
2023-01-17T06:10:39.218Z,93.50
2023-01-17T06:13:12.584Z,94.50
2023-01-17T06:15:39.847Z,95.20
2023-01-17T06:18:11.558Z,95.60
2023-01-17T06:20:39.989Z,95.70
2023-01-17T06:23:12.357Z,95.60
2023-01-17T06:25:47.472Z,95.40
2023-01-17T06:28:21.664Z,95.20
2023-01-17T06:30:49.516Z,95.10
2023-01-17T06:33:16.620Z,95.00
2023-01-17T06:35:52.784Z,95.00
2023-01-17T06:38:21.133Z,94.80
2023-01-17T06:40:48.386Z,94.80
2023-01-17T06:43:15.886Z,94.70
2023-01-17T06:45:42.783Z,94.70
2023-01-17T06:48:09.718Z,94.70
2023-01-17T06:50:36.894Z,94.60
2023-01-17T06:53:06.949Z,94.60
2023-01-17T06:55:37.229Z,94.60
2023-01-17T06:58:04.117Z,94.60
2023-01-17T07:00:34.949Z,94.60
2023-01-17T07:03:02.531Z,94.60
2023-01-17T07:05:29.757Z,94.60
2023-01-17T07:07:58.187Z,94.50
2023-01-17T07:10:25.126Z,94.60
2023-01-17T07:12:57.361Z,94.50
2023-01-17T07:15:24.216Z,94.50
2023-01-17T07:17:51.103Z,94.50
2023-01-17T07:20:18.189Z,94.40
2023-01-17T07:22:46.234Z,94.40
2023-01-17T07:25:13.218Z,94.40
2023-01-17T07:27:40.084Z,94.40
2023-01-17T07:30:10.056Z,94.40
2023-01-17T07:32:37.172Z,94.30
2023-01-17T07:35:05.504Z,94.30
2023-01-17T07:37:32.655Z,94.30
2023-01-17T07:40:00.933Z,94.30
2023-01-17T07:42:27.806Z,94.30
2023-01-17T07:44:54.681Z,94.20
2023-01-17T07:47:21.800Z,94.40
2023-01-17T07:49:48.664Z,94.40
2023-01-17T07:52:18.077Z,94.60
2023-01-17T07:54:45.122Z,94.80
2023-01-17T07:57:12.751Z,95.00
2023-01-17T07:59:39.654Z,95.00
2023-01-17T08:02:14.873Z,94.90
2023-01-17T08:04:41.753Z,94.80
2023-01-17T08:07:08.647Z,94.90
2023-01-17T08:09:35.504Z,94.80
2023-01-17T08:12:02.651Z,95.80
2023-01-17T08:14:29.541Z,97.60
2023-01-17T08:17:15.840Z,96.60
2023-01-17T08:19:43.261Z,94.30
2023-01-17T08:22:12.022Z,92.40
2023-01-17T08:24:39.048Z,91.10
2023-01-17T08:27:05.949Z,87.70
2023-01-17T08:29:32.857Z,83.30
2023-01-17T08:31:59.751Z,81.60
2023-01-17T08:34:26.946Z,79.00
2023-01-17T08:36:54.347Z,77.10
2023-01-17T08:39:22.142Z,75.00
2023-01-17T08:41:49.103Z,75.00
2023-01-17T08:44:16.072Z,77.00
2023-01-17T08:46:44.101Z,78.20
2023-01-17T08:49:12.412Z,78.90
2023-01-17T08:51:40.792Z,79.30
2023-01-17T08:54:09.658Z,80.60
2023-01-17T08:56:36.611Z,81.40
2023-01-17T08:59:03.563Z,83.60
2023-01-17T09:03:34.271Z,78.60
2023-01-17T09:06:12.359Z,77.30
2023-01-17T09:08:41.324Z,76.70
2023-01-17T09:11:14.013Z,75.00
2023-01-17T09:13:42.553Z,75.80
2023-01-17T09:16:10.319Z,73.00
2023-01-17T09:18:38.636Z,69.80
2023-01-17T09:21:16.228Z,68.40
2023-01-17T09:23:44.184Z,66.90
2023-01-17T09:26:29.560Z,64.90
2023-01-17T09:28:58.458Z,63.00
2023-01-17T09:31:26.863Z,61.40
2023-01-17T09:33:57.042Z,60.20
2023-01-17T09:36:33.616Z,59.00
2023-01-17T09:39:03.141Z,60.10
2023-01-17T09:41:48.593Z,59.70
2023-01-17T09:44:42.357Z,58.70
2023-01-17T09:47:32.248Z,58.10
2023-01-17T09:50:49.412Z,59.00
2023-01-17T09:53:21.336Z,57.90
2023-01-17T09:56:23.310Z,57.30
2023-01-17T09:59:21.185Z,58.50
2023-01-17T10:02:30.763Z,60.20
2023-01-17T10:05:37.278Z,60.50
2023-01-17T10:08:30.367Z,59.60
2023-01-17T10:11:37.957Z,59.40
2023-01-17T10:14:17.478Z,55.30
2023-01-17T10:17:22.947Z,57.80
2023-01-17T10:20:46.595Z,59.40
2023-01-17T10:24:03.467Z,61.20
2023-01-17T10:26:33.594Z,63.00
2023-01-17T10:29:13.062Z,64.70
2023-01-17T10:31:59.921Z,65.60
2023-01-17T10:34:48.428Z,66.20
2023-01-17T10:37:41.231Z,68.40
2023-01-17T10:40:51.641Z,66.60
2023-01-17T10:43:45.378Z,60.00
2023-01-17T10:46:28.470Z,56.30
2023-01-17T10:48:57.330Z,52.40
2023-01-17T10:51:59.921Z,54.80
2023-01-17T10:55:06.043Z,57.90
2023-01-17T10:57:45.434Z,61.00
2023-01-17T11:00:45.314Z,62.50
2023-01-17T11:03:17.363Z,63.70
2023-01-17T11:05:44.549Z,64.70
2023-01-17T11:08:14.463Z,66.20
2023-01-17T11:10:57.091Z,67.40
2023-01-17T11:13:34.112Z,67.40
2023-01-17T11:16:08.591Z,67.60
2023-01-17T11:18:39.614Z,65.30
2023-01-17T11:21:15.302Z,58.20
2023-01-17T11:23:50.680Z,52.50
2023-01-17T11:26:34.217Z,49.30
2023-01-17T11:29:40.307Z,46.40
2023-01-17T11:32:31.963Z,44.10
2023-01-17T11:35:44.956Z,43.00
2023-01-17T11:38:24.364Z,41.60
2023-01-17T11:41:15.752Z,40.90
2023-01-17T11:43:59.045Z,40.10
2023-01-17T11:46:31.627Z,40.20
2023-01-17T11:49:01.809Z,39.00
2023-01-17T11:51:49.137Z,38.60
2023-01-17T11:54:39.436Z,37.20
2023-01-17T11:57:32.767Z,37.50
2023-01-17T12:00:45.875Z,39.60
2023-01-17T12:03:50.473Z,40.50
2023-01-17T12:06:56.092Z,42.50
2023-01-17T12:09:55.417Z,41.50
2023-01-17T12:13:31.061Z,41.50
2023-01-17T12:16:37.446Z,40.70
2023-01-17T12:19:55.586Z,44.80
2023-01-17T12:23:13.895Z,47.30
2023-01-17T12:26:19.693Z,47.60
2023-01-17T12:29:28.022Z,50.10
2023-01-17T12:32:39.092Z,46.20
2023-01-17T12:35:31.105Z,47.50
2023-01-17T12:38:12.628Z,49.20
2023-01-17T12:41:06.257Z,49.10
2023-01-17T12:43:44.711Z,47.60
2023-01-17T12:47:04.343Z,45.10
2023-01-17T12:50:01.968Z,43.50
2023-01-17T12:53:06.903Z,40.40
2023-01-17T12:55:58.348Z,40.20
2023-01-17T12:58:42.375Z,38.30
2023-01-17T13:01:42.937Z,38.80
2023-01-17T13:04:58.395Z,36.30
2023-01-17T13:08:03.079Z,36.40
2023-01-17T13:11:29.972Z,33.70
2023-01-17T13:13:59.919Z,34.20
2023-01-17T13:16:44.723Z,34.30
2023-01-17T13:19:38.967Z,35.10
2023-01-17T13:22:17.336Z,37.00
2023-01-17T13:25:32.618Z,37.60
2023-01-17T13:28:37.990Z,37.90
2023-01-17T13:31:48.216Z,38.60
2023-01-17T13:34:50.717Z,39.10
2023-01-17T13:38:01.911Z,38.90
2023-01-17T13:40:53.402Z,39.60
2023-01-17T13:43:30.225Z,40.70
2023-01-17T13:46:03.258Z,41.90
2023-01-17T13:48:37.966Z,44.00
2023-01-17T13:51:12.193Z,45.00
2023-01-17T13:53:38.973Z,45.90
2023-01-17T13:56:18.224Z,47.80
2023-01-17T13:59:03.548Z,48.40
2023-01-17T14:01:39.543Z,48.90
2023-01-17T14:04:12.530Z,49.50
2023-01-17T14:06:54.446Z,49.80
2023-01-17T14:09:42.588Z,51.00
2023-01-17T14:12:12.156Z,51.00
2023-01-17T14:14:42.611Z,51.50
2023-01-17T14:17:29.143Z,51.50
2023-01-17T14:20:24.785Z,51.90
2023-01-17T14:23:02.187Z,52.30
2023-01-17T14:25:40.260Z,52.80
2023-01-17T14:28:29.116Z,53.90
2023-01-17T14:31:00.866Z,54.40
2023-01-17T14:33:36.064Z,54.70
2023-01-17T14:36:32.242Z,56.30
2023-01-17T14:38:59.350Z,56.70
2023-01-17T14:41:29.704Z,58.30
2023-01-17T14:43:59.820Z,58.20
2023-01-17T14:46:32.202Z,58.80
2023-01-17T14:49:06.483Z,59.20
2023-01-17T14:51:38.350Z,60.30
2023-01-17T14:54:22.122Z,61.80
2023-01-17T14:56:48.989Z,62.90
2023-01-17T14:59:21.912Z,64.00
2023-01-17T15:02:08.268Z,64.60
2023-01-17T15:04:39.142Z,65.50
2023-01-17T15:07:12.180Z,65.80
2023-01-17T15:09:43.689Z,66.40
2023-01-17T15:12:16.196Z,66.40
2023-01-17T15:14:46.403Z,66.60
2023-01-17T15:17:24.681Z,66.80
2023-01-17T15:20:16.527Z,67.10
2023-01-17T15:22:43.614Z,67.60
2023-01-17T15:25:13.011Z,68.00
2023-01-17T15:27:40.792Z,68.40
2023-01-17T15:30:11.451Z,68.40
2023-01-17T15:32:38.701Z,69.20
2023-01-17T15:35:08.021Z,69.90
2023-01-17T15:37:40.416Z,70.50
2023-01-17T15:40:24.820Z,70.90
2023-01-17T15:43:00.869Z,71.80
2023-01-17T15:45:35.923Z,72.70
2023-01-17T15:48:38.471Z,73.60
2023-01-17T15:51:05.704Z,74.10
2023-01-17T15:53:39.323Z,74.50
2023-01-17T15:56:33.670Z,75.50
2023-01-17T15:59:45.458Z,76.30
2023-01-17T16:02:43.800Z,76.80
2023-01-17T16:05:30.883Z,77.20
2023-01-17T16:08:04.201Z,78.20
2023-01-17T16:10:37.709Z,78.60
2023-01-17T16:13:12.577Z,79.30
2023-01-17T16:15:41.268Z,79.30
2023-01-17T16:18:25.686Z,80.40
2023-01-17T16:21:22.241Z,81.30
2023-01-17T16:23:50.100Z,82.10
2023-01-17T16:26:17.212Z,82.60
2023-01-17T16:28:44.252Z,82.30
2023-01-17T16:31:11.807Z,82.10
2023-01-17T16:33:39.293Z,82.70
2023-01-17T16:36:06.823Z,83.10
2023-01-17T16:38:33.740Z,83.30
2023-01-17T16:41:04.405Z,83.20
2023-01-17T16:43:31.271Z,82.90
2023-01-17T16:45:58.153Z,82.70
2023-01-17T16:48:25.101Z,82.80
2023-01-17T16:50:52.847Z,83.00
2023-01-17T16:53:27.055Z,83.20
2023-01-17T16:55:59.583Z,83.40
2023-01-17T16:58:26.482Z,83.40
2023-01-17T17:00:55.282Z,83.50
2023-01-17T17:03:22.738Z,83.20
2023-01-17T17:06:00.560Z,83.10
2023-01-17T17:08:31.393Z,83.20
2023-01-17T17:11:19.605Z,83.00
2023-01-17T17:13:50.537Z,82.90
2023-01-17T17:16:32.875Z,82.70
2023-01-17T17:19:06.376Z,83.10
2023-01-17T17:21:39.271Z,83.20
2023-01-17T17:24:06.678Z,83.30
2023-01-17T17:26:36.708Z,84.30
2023-01-17T17:29:06.595Z,84.50
2023-01-17T17:31:33.738Z,84.20
2023-01-17T17:34:03.880Z,84.10
2023-01-17T17:36:31.504Z,84.30
2023-01-17T17:38:59.857Z,84.70
2023-01-17T17:41:33.820Z,85.20
2023-01-17T17:44:03.769Z,86.20
2023-01-17T17:46:31.847Z,87.20
2023-01-17T17:49:00.028Z,88.30
2023-01-17T17:51:40.214Z,89.20
2023-01-17T17:54:12.771Z,89.80
2023-01-17T17:56:41.059Z,90.10
2023-01-17T17:59:09.668Z,90.30
2023-01-17T18:01:38.295Z,90.50
2023-01-17T18:04:07.347Z,90.70
2023-01-17T18:06:35.957Z,90.90
2023-01-17T18:09:04.872Z,91.10
2023-01-17T18:11:32.335Z,91.40
2023-01-17T18:14:04.789Z,91.50
2023-01-17T18:16:41.448Z,91.50
2023-01-17T18:19:19.678Z,91.50
2023-01-17T18:21:48.613Z,91.60
2023-01-17T18:24:20.214Z,91.70
2023-01-17T18:26:57.499Z,91.70
2023-01-17T18:29:27.019Z,91.70
2023-01-17T18:31:55.687Z,91.90
2023-01-17T18:34:29.115Z,92.10
2023-01-17T18:36:57.642Z,92.40
2023-01-17T18:39:30.302Z,92.60
2023-01-17T18:41:57.951Z,92.70
2023-01-17T18:44:26.580Z,92.80
2023-01-17T18:46:55.055Z,92.90
2023-01-17T18:49:22.211Z,93.10
2023-01-17T18:51:50.912Z,93.20
2023-01-17T18:54:20.610Z,93.30
2023-01-17T18:56:48.505Z,93.30
2023-01-17T18:59:20.265Z,93.30
2023-01-17T19:01:47.598Z,93.40
2023-01-17T19:04:17.212Z,93.40
2023-01-17T19:06:47.881Z,93.60
2023-01-17T19:09:16.928Z,93.80
2023-01-17T19:11:47.218Z,93.80
2023-01-17T19:14:14.380Z,93.90
2023-01-17T19:16:42.943Z,94.00
2023-01-17T19:19:14.906Z,94.10
2023-01-17T19:21:42.486Z,94.10
2023-01-17T19:24:15.140Z,93.90
2023-01-17T19:26:42.990Z,93.50
2023-01-17T19:29:10.231Z,92.90
2023-01-17T19:31:42.502Z,92.30
2023-01-17T19:34:13.542Z,92.10
2023-01-17T19:36:40.695Z,92.00
2023-01-17T19:39:09.735Z,92.00
2023-01-17T19:41:44.383Z,92.10
2023-01-17T19:44:14.044Z,92.20
2023-01-17T19:46:42.220Z,92.20
2023-01-17T19:49:10.213Z,92.00
2023-01-17T19:51:39.490Z,91.60
2023-01-17T19:54:08.076Z,91.30
2023-01-17T19:56:35.258Z,91.00
2023-01-17T19:59:02.474Z,90.70
2023-01-17T20:01:34.090Z,90.30
2023-01-17T20:04:03.913Z,90.00
2023-01-17T20:06:35.951Z,89.40
2023-01-17T20:09:05.794Z,88.70
2023-01-17T20:11:32.821Z,88.40
2023-01-17T20:14:00.602Z,88.00
2023-01-17T20:16:31.651Z,87.30
2023-01-17T20:19:00.094Z,86.90
2023-01-17T20:21:30.988Z,86.60
2023-01-17T20:24:00.123Z,86.20
2023-01-17T20:26:35.348Z,85.90
2023-01-17T20:29:12.113Z,85.60
2023-01-17T20:31:42.622Z,85.40
2023-01-17T20:34:14.210Z,85.00
2023-01-17T20:36:42.286Z,84.90
2023-01-17T20:39:13.724Z,84.30
2023-01-17T20:41:44.718Z,84.40
2023-01-17T20:44:15.433Z,84.20
2023-01-17T20:46:43.482Z,84.20
2023-01-17T20:49:19.836Z,84.20
2023-01-17T20:51:47.999Z,83.90
2023-01-17T20:54:19.595Z,84.10
2023-01-17T20:56:48.023Z,84.00
2023-01-17T20:59:22.273Z,84.10
2023-01-17T21:01:50.579Z,84.00
2023-01-17T21:04:24.721Z,84.00
2023-01-17T21:06:53.231Z,83.90
2023-01-17T21:09:21.601Z,83.90
2023-01-17T21:11:49.130Z,83.70
2023-01-17T21:14:16.256Z,83.50
2023-01-17T21:16:43.215Z,83.90
2023-01-17T21:19:14.882Z,83.60
2023-01-17T21:21:42.035Z,83.70
2023-01-17T21:27:12.211Z,84.20
2023-01-17T21:29:39.133Z,83.80
2023-01-17T21:32:06.648Z,83.90
2023-01-17T21:34:34.515Z,84.50
2023-01-17T21:37:01.530Z,84.70
2023-01-17T21:39:29.236Z,84.60
2023-01-17T21:41:56.128Z,84.70
2023-01-17T21:44:24.016Z,84.60
2023-01-17T21:46:53.599Z,84.60
2023-01-17T21:49:21.360Z,84.70
2023-01-17T21:51:54.277Z,84.90
2023-01-17T21:54:43.245Z,84.90
2023-01-17T21:57:31.717Z,85.20
2023-01-17T21:59:58.869Z,85.40
2023-01-17T22:02:25.843Z,85.30
2023-01-17T22:04:54.476Z,85.30
2023-01-17T22:07:21.566Z,85.60
2023-01-17T22:09:48.443Z,85.80
2023-01-17T22:12:15.381Z,86.10
2023-01-17T22:14:42.305Z,86.40
2023-01-17T22:17:09.608Z,86.40
2023-01-17T22:19:36.662Z,86.60
2023-01-17T22:22:03.945Z,86.60
2023-01-17T22:24:30.824Z,86.80
2023-01-17T22:26:57.841Z,86.80
2023-01-17T22:29:24.892Z,87.20
2023-01-17T22:31:51.809Z,87.50
2023-01-17T22:34:18.811Z,88.00
2023-01-17T22:36:45.921Z,88.10
2023-01-17T22:54:49.891Z,90.00
2023-01-17T23:06:40.995Z,90.70
2023-01-17T23:09:22.539Z,90.90
2023-01-17T23:11:54.979Z,91.10
2023-01-17T23:14:51.773Z,91.30
2023-01-17T23:17:42.229Z,91.50
2023-01-17T23:20:11.875Z,91.70
2023-01-17T23:22:38.897Z,91.80
2023-01-17T23:25:13.463Z,92.00
2023-01-17T23:28:05.954Z,92.10
2023-01-17T23:30:41.865Z,92.30
2023-01-17T23:33:15.848Z,92.50
2023-01-17T23:35:46.342Z,92.70
2023-01-17T23:38:25.969Z,92.90
2023-01-17T23:41:22.310Z,93.10
2023-01-17T23:43:58.619Z,93.30
2023-01-17T23:46:28.615Z,93.50
2023-01-17T23:48:55.573Z,93.70
2023-01-17T23:51:22.649Z,93.90
2023-01-17T23:53:57.068Z,94.10
2023-01-17T23:56:24.720Z,94.20
2023-01-17T23:58:51.716Z,94.40
